Aérodrome :
LOGIN :

S'inscrire | Disclaimer

   EN    FR    IT 

 










Légende :    VFR   VFR Marginal   IFR   IFR Intensif   IFR Très Intensif
Visi : 
Plafond : 
>= 8 km
>= 3000ft
5 à 8 km
1000 à 3000 ft
1500m à 5 km
500 à 1000 ft
800 à 1500m
200 à 500 ft
< 800m
< 200 ft
Symboles :   Orages  Brouillard  Fortes neiges  Fortes précipitations  Vent > 20 kt
SIGMETs :   Divers  Orages  Givrage  Turbulence  Onde Orograph.  Cendres Volcan.






- Altitude de l'aérodrome : 408 ft
- Code IATA : KWG


UKDR - Lozuvatka

DERNIER METAR :
  • 191630Z 01003MPS 330V030 0550 0450NE R36/P2000N FZFG VV002 M03/M03 Q1032 R36/19//60 NOSIG

METARs EXPIRÉS :
  • 191600Z 01002MPS 330V050 0700 0400NE R36/P2000N FZFG VV002 M03/M03 Q1032 R36/19//60 NOSIG
  • 191530Z 01002MPS 320V070 0650 0600NE R36/1600N FZFG VV002 M03/M03 Q1032 R36/19//60 NOSIG
  • 191500Z 02002MPS 360V060 1000 0600NE R36/P2000N FZFG VV002 M03/M03 Q1031 R36/19//60 NOSIG
  • 191430Z 02002MPS 0700 0550N R36/P2000N FZFG VV003 M03/M03 Q1031 R36/19//60 NOSIG
  • 191400Z 02002MPS 330V050 1000 0800NE R36/1200D FZFG VV002 M03/M03 Q1031 R36/19//60 NOSIG

TAF TAF UKDR
Valide du 19 à 12h jusqu'au 20 à 12h UTC


191102Z 1912/2012 04002MPS 0400 FZFG VV002 TX01/2012Z TNM03/2006Z
TEMPO 1912/1915 1400 BR OVC004
BECMG 2009/2011 33004MPS 2100 BR OVC005



MET'MAP, la Météo Aéronautique d'un coup d'oeil ! - Copyright ORBIFLY Décembre 2007 - Disclaimer

ORBIFLY MET'MAP TEAM :

Programmation & Développement : Alexandra Zaïnal
Sur une idée originale de : Baudouin d'Aumeries
Assistance à la programmation : Marc-Olivier Méhu
Soutien technique & logistique : Manuel Goepfert

Contact : metmap@orbifly.com




SOURCES & CREDITS :

   NOAA